sensor_id;sensor_type;location;lat;lon;timestamp;P1;durP1;ratioP1;P2;durP2;ratioP2
21213;SDS011;10764;50.850;2.904;2023-05-10T00:01:27;2.50;;;1.40;;
21213;SDS011;10764;50.850;2.904;2023-05-10T00:03:54;3.67;;;1.63;;
21213;SDS011;10764;50.850;2.904;2023-05-10T00:06:21;1.70;;;1.60;;
21213;SDS011;10764;50.850;2.904;2023-05-10T00:08:48;2.45;;;1.50;;
21213;SDS011;10764;50.850;2.904;2023-05-10T00:11:15;2.80;;;1.60;;
21213;SDS011;10764;50.850;2.904;2023-05-10T00:13:42;3.60;;;1.80;;
21213;SDS011;10764;50.850;2.904;2023-05-10T00:16:09;1.70;;;1.50;;
21213;SDS011;10764;50.850;2.904;2023-05-10T00:18:36;3.17;;;1.58;;
21213;SDS011;10764;50.850;2.904;2023-05-10T00:21:03;3.83;;;2.10;;
21213;SDS011;10764;50.850;2.904;2023-05-10T00:23:30;2.88;;;1.60;;
21213;SDS011;10764;50.850;2.904;2023-05-10T00:25:57;2.65;;;1.52;;
21213;SDS011;10764;50.850;2.904;2023-05-10T00:28:24;2.77;;;1.77;;
21213;SDS011;10764;50.850;2.904;2023-05-10T00:30:53;2.20;;;1.80;;
21213;SDS011;10764;50.850;2.904;2023-05-10T00:33:20;2.78;;;1.67;;
21213;SDS011;10764;50.850;2.904;2023-05-10T00:35:47;2.83;;;1.70;;
21213;SDS011;10764;50.850;2.904;2023-05-10T00:38:14;1.77;;;1.67;;
21213;SDS011;10764;50.850;2.904;2023-05-10T00:40:41;3.30;;;1.73;;
21213;SDS011;10764;50.850;2.904;2023-05-10T00:43:14;2.13;;;1.80;;
21213;SDS011;10764;50.850;2.904;2023-05-10T00:45:41;2.88;;;1.52;;
21213;SDS011;10764;50.850;2.904;2023-05-10T00:48:08;2.28;;;1.70;;
21213;SDS011;10764;50.850;2.904;2023-05-10T00:50:36;2.80;;;1.63;;
21213;SDS011;10764;50.850;2.904;2023-05-10T00:53:03;2.75;;;1.63;;
21213;SDS011;10764;50.850;2.904;2023-05-10T00:55:30;2.07;;;1.60;;
21213;SDS011;10764;50.850;2.904;2023-05-10T00:57:57;3.77;;;1.80;;
21213;SDS011;10764;50.850;2.904;2023-05-10T01:00:24;2.42;;;1.70;;
21213;SDS011;10764;50.850;2.904;2023-05-10T01:02:52;2.53;;;1.60;;
21213;SDS011;10764;50.850;2.904;2023-05-10T01:05:21;2.53;;;1.73;;
21213;SDS011;10764;50.850;2.904;2023-05-10T01:07:49;2.28;;;1.58;;
21213;SDS011;10764;50.850;2.904;2023-05-10T01:10:16;2.80;;;1.90;;
21213;SDS011;10764;50.850;2.904;2023-05-10T01:12:44;3.95;;;1.70;;
21213;SDS011;10764;50.850;2.904;2023-05-10T01:15:14;2.22;;;1.80;;
21213;SDS011;10764;50.850;2.904;2023-05-10T01:17:44;2.30;;;1.70;;
21213;SDS011;10764;50.850;2.904;2023-05-10T01:20:13;3.28;;;1.83;;
21213;SDS011;10764;50.850;2.904;2023-05-10T01:28:13;2.60;;;2.10;;
21213;SDS011;10764;50.850;2.904;2023-05-10T01:33:41;3.53;;;1.95;;
21213;SDS011;10764;50.850;2.904;2023-05-10T01:41:45;1.88;;;1.50;;
21213;SDS011;10764;50.850;2.904;2023-05-10T01:44:32;2.85;;;1.80;;
21213;SDS011;10764;50.850;2.904;2023-05-10T01:47:10;2.30;;;1.80;;
21213;SDS011;10764;50.850;2.904;2023-05-10T01:49:49;2.30;;;1.90;;
21213;SDS011;10764;50.850;2.904;2023-05-10T01:52:22;2.10;;;1.60;;
21213;SDS011;10764;50.850;2.904;2023-05-10T01:54:59;2.50;;;1.70;;
21213;SDS011;10764;50.850;2.904;2023-05-10T01:57:39;2.10;;;1.60;;
21213;SDS011;10764;50.850;2.904;2023-05-10T02:00:08;1.67;;;1.30;;
21213;SDS011;10764;50.850;2.904;2023-05-10T02:02:40;2.40;;;1.58;;
21213;SDS011;10764;50.850;2.904;2023-05-10T02:05:12;2.97;;;1.77;;
21213;SDS011;10764;50.850;2.904;2023-05-10T02:07:40;2.20;;;1.60;;
21213;SDS011;10764;50.850;2.904;2023-05-10T02:10:09;2.25;;;1.40;;
21213;SDS011;10764;50.850;2.904;2023-05-10T02:12:38;2.23;;;1.60;;
21213;SDS011;10764;50.850;2.904;2023-05-10T02:15:07;2.67;;;1.67;;
21213;SDS011;10764;50.850;2.904;2023-05-10T02:17:37;2.42;;;1.48;;
21213;SDS011;10764;50.850;2.904;2023-05-10T02:20:05;3.35;;;1.67;;
21213;SDS011;10764;50.850;2.904;2023-05-10T02:22:34;2.53;;;1.60;;
21213;SDS011;10764;50.850;2.904;2023-05-10T02:25:02;3.35;;;1.65;;
21213;SDS011;10764;50.850;2.904;2023-05-10T02:27:33;3.65;;;1.75;;
21213;SDS011;10764;50.850;2.904;2023-05-10T02:30:01;2.00;;;1.27;;
21213;SDS011;10764;50.850;2.904;2023-05-10T02:32:28;3.55;;;1.45;;
21213;SDS011;10764;50.850;2.904;2023-05-10T02:34:56;2.37;;;1.43;;
21213;SDS011;10764;50.850;2.904;2023-05-10T02:37:24;3.25;;;1.60;;
21213;SDS011;10764;50.850;2.904;2023-05-10T02:39:54;2.47;;;1.45;;
21213;SDS011;10764;50.850;2.904;2023-05-10T02:42:23;2.63;;;1.45;;
21213;SDS011;10764;50.850;2.904;2023-05-10T02:44:54;3.15;;;1.65;;
21213;SDS011;10764;50.850;2.904;2023-05-10T02:47:34;3.42;;;1.80;;
21213;SDS011;10764;50.850;2.904;2023-05-10T02:50:01;3.75;;;1.90;;
21213;SDS011;10764;50.850;2.904;2023-05-10T02:52:37;3.08;;;1.70;;
21213;SDS011;10764;50.850;2.904;2023-05-10T02:55:19;3.33;;;1.70;;
21213;SDS011;10764;50.850;2.904;2023-05-10T02:57:50;3.38;;;1.67;;
21213;SDS011;10764;50.850;2.904;2023-05-10T03:00:22;3.17;;;1.65;;
21213;SDS011;10764;50.850;2.904;2023-05-10T03:02:51;3.10;;;1.60;;
21213;SDS011;10764;50.850;2.904;2023-05-10T03:05:19;3.73;;;1.60;;
21213;SDS011;10764;50.850;2.904;2023-05-10T03:07:46;3.30;;;1.85;;
21213;SDS011;10764;50.850;2.904;2023-05-10T03:10:13;3.03;;;1.50;;
21213;SDS011;10764;50.850;2.904;2023-05-10T03:12:57;2.72;;;1.52;;
21213;SDS011;10764;50.850;2.904;2023-05-10T03:16:19;3.55;;;1.60;;
21213;SDS011;10764;50.850;2.904;2023-05-10T03:21:03;5.22;;;1.73;;
21213;SDS011;10764;50.850;2.904;2023-05-10T03:23:41;3.28;;;1.50;;
21213;SDS011;10764;50.850;2.904;2023-05-10T03:26:17;3.50;;;1.65;;
21213;SDS011;10764;50.850;2.904;2023-05-10T03:28:51;2.88;;;1.52;;
21213;SDS011;10764;50.850;2.904;2023-05-10T03:31:19;3.50;;;1.70;;
21213;SDS011;10764;50.850;2.904;2023-05-10T03:33:48;2.80;;;1.42;;
21213;SDS011;10764;50.850;2.904;2023-05-10T03:36:20;2.85;;;1.65;;
21213;SDS011;10764;50.850;2.904;2023-05-10T03:38:47;2.95;;;1.45;;
21213;SDS011;10764;50.850;2.904;2023-05-10T03:41:14;3.70;;;1.85;;
21213;SDS011;10764;50.850;2.904;2023-05-10T03:43:41;3.08;;;1.40;;
21213;SDS011;10764;50.850;2.904;2023-05-10T03:46:08;3.90;;;1.70;;
21213;SDS011;10764;50.850;2.904;2023-05-10T03:48:35;3.50;;;1.63;;
21213;SDS011;10764;50.850;2.904;2023-05-10T03:51:02;3.77;;;1.77;;
21213;SDS011;10764;50.850;2.904;2023-05-10T03:53:29;3.00;;;1.52;;
21213;SDS011;10764;50.850;2.904;2023-05-10T03:55:56;3.85;;;1.70;;
21213;SDS011;10764;50.850;2.904;2023-05-10T03:58:23;2.92;;;1.40;;
21213;SDS011;10764;50.850;2.904;2023-05-10T04:00:50;3.27;;;1.60;;
21213;SDS011;10764;50.850;2.904;2023-05-10T04:03:17;2.63;;;1.42;;
21213;SDS011;10764;50.850;2.904;2023-05-10T04:05:45;3.33;;;1.63;;
21213;SDS011;10764;50.850;2.904;2023-05-10T04:08:12;2.97;;;1.67;;
21213;SDS011;10764;50.850;2.904;2023-05-10T04:10:38;3.53;;;1.60;;
21213;SDS011;10764;50.850;2.904;2023-05-10T04:13:06;2.88;;;1.67;;
21213;SDS011;10764;50.850;2.904;2023-05-10T04:15:33;4.22;;;1.80;;
21213;SDS011;10764;50.850;2.904;2023-05-10T04:17:59;3.97;;;1.87;;
21213;SDS011;10764;50.850;2.904;2023-05-10T04:20:27;3.38;;;1.60;;
21213;SDS011;10764;50.850;2.904;2023-05-10T04:22:54;3.83;;;1.70;;
21213;SDS011;10764;50.850;2.904;2023-05-10T04:25:20;3.28;;;1.67;;
21213;SDS011;10764;50.850;2.904;2023-05-10T04:27:47;3.00;;;1.52;;
21213;SDS011;10764;50.850;2.904;2023-05-10T04:30:14;4.63;;;1.87;;
21213;SDS011;10764;50.850;2.904;2023-05-10T04:32:41;4.30;;;2.10;;
21213;SDS011;10764;50.850;2.904;2023-05-10T04:35:08;4.45;;;1.95;;
21213;SDS011;10764;50.850;2.904;2023-05-10T04:37:36;3.10;;;1.60;;
21213;SDS011;10764;50.850;2.904;2023-05-10T04:40:04;4.15;;;2.00;;
21213;SDS011;10764;50.850;2.904;2023-05-10T04:42:31;5.15;;;2.10;;
21213;SDS011;10764;50.850;2.904;2023-05-10T04:44:58;3.58;;;1.83;;
21213;SDS011;10764;50.850;2.904;2023-05-10T04:47:25;3.83;;;1.80;;
21213;SDS011;10764;50.850;2.904;2023-05-10T04:49:52;4.07;;;1.90;;
21213;SDS011;10764;50.850;2.904;2023-05-10T04:52:19;3.92;;;2.00;;
21213;SDS011;10764;50.850;2.904;2023-05-10T04:54:46;3.03;;;1.90;;
21213;SDS011;10764;50.850;2.904;2023-05-10T04:57:13;3.70;;;1.90;;
21213;SDS011;10764;50.850;2.904;2023-05-10T04:59:40;4.22;;;1.83;;
21213;SDS011;10764;50.850;2.904;2023-05-10T05:02:07;4.03;;;1.90;;
21213;SDS011;10764;50.850;2.904;2023-05-10T05:04:34;4.70;;;2.10;;
21213;SDS011;10764;50.850;2.904;2023-05-10T05:07:00;4.70;;;2.30;;
21213;SDS011;10764;50.850;2.904;2023-05-10T05:09:27;3.47;;;1.95;;
21213;SDS011;10764;50.850;2.904;2023-05-10T05:11:54;4.03;;;1.90;;
21213;SDS011;10764;50.850;2.904;2023-05-10T05:14:21;4.20;;;2.07;;
21213;SDS011;10764;50.850;2.904;2023-05-10T05:16:48;3.30;;;1.70;;
21213;SDS011;10764;50.850;2.904;2023-05-10T05:19:15;3.22;;;1.85;;
21213;SDS011;10764;50.850;2.904;2023-05-10T05:21:42;5.03;;;2.08;;
21213;SDS011;10764;50.850;2.904;2023-05-10T05:24:09;3.80;;;1.85;;
21213;SDS011;10764;50.850;2.904;2023-05-10T05:26:38;3.65;;;1.90;;
21213;SDS011;10764;50.850;2.904;2023-05-10T05:29:05;4.90;;;1.83;;
21213;SDS011;10764;50.850;2.904;2023-05-10T05:31:33;3.25;;;1.73;;
21213;SDS011;10764;50.850;2.904;2023-05-10T05:34:00;4.20;;;2.10;;
21213;SDS011;10764;50.850;2.904;2023-05-10T05:36:27;5.13;;;1.70;;
21213;SDS011;10764;50.850;2.904;2023-05-10T05:38:54;3.15;;;1.73;;
21213;SDS011;10764;50.850;2.904;2023-05-10T05:41:21;3.42;;;1.90;;
21213;SDS011;10764;50.850;2.904;2023-05-10T05:43:48;4.60;;;1.90;;
21213;SDS011;10764;50.850;2.904;2023-05-10T05:46:15;3.33;;;1.80;;
21213;SDS011;10764;50.850;2.904;2023-05-10T05:48:42;4.00;;;1.85;;
21213;SDS011;10764;50.850;2.904;2023-05-10T05:51:09;3.03;;;1.53;;
21213;SDS011;10764;50.850;2.904;2023-05-10T05:53:36;3.67;;;1.80;;
21213;SDS011;10764;50.850;2.904;2023-05-10T05:56:03;4.20;;;1.73;;
21213;SDS011;10764;50.850;2.904;2023-05-10T05:58:30;3.05;;;1.90;;
21213;SDS011;10764;50.850;2.904;2023-05-10T06:00:57;3.47;;;1.50;;
21213;SDS011;10764;50.850;2.904;2023-05-10T06:03:24;4.25;;;1.60;;
21213;SDS011;10764;50.850;2.904;2023-05-10T06:05:51;3.90;;;1.85;;
21213;SDS011;10764;50.850;2.904;2023-05-10T06:08:18;2.90;;;1.60;;
21213;SDS011;10764;50.850;2.904;2023-05-10T06:10:45;3.55;;;1.77;;
21213;SDS011;10764;50.850;2.904;2023-05-10T06:13:12;3.57;;;1.50;;
21213;SDS011;10764;50.850;2.904;2023-05-10T06:15:39;2.53;;;1.50;;
21213;SDS011;10764;50.850;2.904;2023-05-10T06:18:05;4.05;;;1.85;;
21213;SDS011;10764;50.850;2.904;2023-05-10T06:20:32;3.90;;;1.90;;
21213;SDS011;10764;50.850;2.904;2023-05-10T06:22:59;4.50;;;1.83;;
21213;SDS011;10764;50.850;2.904;2023-05-10T06:25:26;3.58;;;1.58;;
21213;SDS011;10764;50.850;2.904;2023-05-10T06:27:53;4.03;;;1.80;;
21213;SDS011;10764;50.850;2.904;2023-05-10T06:30:24;3.93;;;1.80;;
21213;SDS011;10764;50.850;2.904;2023-05-10T06:32:55;3.92;;;1.85;;
21213;SDS011;10764;50.850;2.904;2023-05-10T06:35:23;6.00;;;1.80;;
21213;SDS011;10764;50.850;2.904;2023-05-10T06:37:50;6.18;;;2.30;;
21213;SDS011;10764;50.850;2.904;2023-05-10T06:40:17;4.53;;;1.77;;
21213;SDS011;10764;50.850;2.904;2023-05-10T06:42:45;4.70;;;1.60;;
21213;SDS011;10764;50.850;2.904;2023-05-10T06:45:14;5.25;;;2.03;;
21213;SDS011;10764;50.850;2.904;2023-05-10T06:47:42;5.57;;;2.10;;
21213;SDS011;10764;50.850;2.904;2023-05-10T06:50:09;3.40;;;1.65;;
21213;SDS011;10764;50.850;2.904;2023-05-10T06:52:40;5.72;;;1.92;;
21213;SDS011;10764;50.850;2.904;2023-05-10T06:55:07;3.97;;;1.90;;
21213;SDS011;10764;50.850;2.904;2023-05-10T06:57:34;5.57;;;2.30;;
21213;SDS011;10764;50.850;2.904;2023-05-10T07:00:02;5.20;;;2.20;;
21213;SDS011;10764;50.850;2.904;2023-05-10T07:02:32;4.15;;;2.25;;
21213;SDS011;10764;50.850;2.904;2023-05-10T07:04:59;3.97;;;2.10;;
21213;SDS011;10764;50.850;2.904;2023-05-10T07:07:30;4.05;;;2.33;;
21213;SDS011;10764;50.850;2.904;2023-05-10T07:09:57;4.57;;;2.28;;
21213;SDS011;10764;50.850;2.904;2023-05-10T07:12:24;3.92;;;2.38;;
21213;SDS011;10764;50.850;2.904;2023-05-10T07:14:51;4.25;;;2.40;;
21213;SDS011;10764;50.850;2.904;2023-05-10T07:17:18;4.30;;;2.20;;
21213;SDS011;10764;50.850;2.904;2023-05-10T07:19:45;4.03;;;2.27;;
21213;SDS011;10764;50.850;2.904;2023-05-10T07:22:12;3.17;;;2.10;;
21213;SDS011;10764;50.850;2.904;2023-05-10T07:24:39;4.13;;;2.63;;
21213;SDS011;10764;50.850;2.904;2023-05-10T07:27:06;3.85;;;2.42;;
21213;SDS011;10764;50.850;2.904;2023-05-10T07:29:33;3.97;;;2.50;;
21213;SDS011;10764;50.850;2.904;2023-05-10T07:32:01;3.58;;;2.50;;
21213;SDS011;10764;50.850;2.904;2023-05-10T07:34:28;4.72;;;2.50;;
21213;SDS011;10764;50.850;2.904;2023-05-10T07:36:59;3.95;;;2.30;;
21213;SDS011;10764;50.850;2.904;2023-05-10T07:39:27;3.70;;;2.40;;
21213;SDS011;10764;50.850;2.904;2023-05-10T07:41:57;4.30;;;2.47;;
21213;SDS011;10764;50.850;2.904;2023-05-10T07:44:24;4.60;;;2.90;;
21213;SDS011;10764;50.850;2.904;2023-05-10T07:46:51;4.10;;;2.55;;
21213;SDS011;10764;50.850;2.904;2023-05-10T07:49:18;3.10;;;2.60;;
21213;SDS011;10764;50.850;2.904;2023-05-10T07:51:45;4.40;;;2.92;;
21213;SDS011;10764;50.850;2.904;2023-05-10T07:54:13;4.63;;;3.08;;
21213;SDS011;10764;50.850;2.904;2023-05-10T07:56:40;3.63;;;2.90;;
21213;SDS011;10764;50.850;2.904;2023-05-10T07:59:14;5.53;;;3.20;;
21213;SDS011;10764;50.850;2.904;2023-05-10T08:01:42;3.70;;;2.90;;
21213;SDS011;10764;50.850;2.904;2023-05-10T08:04:10;4.60;;;3.30;;
21213;SDS011;10764;50.850;2.904;2023-05-10T08:06:37;3.42;;;3.13;;
21213;SDS011;10764;50.850;2.904;2023-05-10T08:09:05;3.88;;;3.30;;
21213;SDS011;10764;50.850;2.904;2023-05-10T08:11:32;4.32;;;3.20;;
21213;SDS011;10764;50.850;2.904;2023-05-10T08:14:00;4.80;;;3.30;;
21213;SDS011;10764;50.850;2.904;2023-05-10T08:16:27;4.40;;;3.42;;
21213;SDS011;10764;50.850;2.904;2023-05-10T08:18:55;4.03;;;3.30;;
21213;SDS011;10764;50.850;2.904;2023-05-10T08:21:22;4.45;;;3.65;;
21213;SDS011;10764;50.850;2.904;2023-05-10T08:23:49;4.57;;;4.00;;
21213;SDS011;10764;50.850;2.904;2023-05-10T08:26:16;4.20;;;3.80;;
21213;SDS011;10764;50.850;2.904;2023-05-10T08:28:42;4.72;;;3.60;;
21213;SDS011;10764;50.850;2.904;2023-05-10T08:31:10;4.03;;;3.40;;
21213;SDS011;10764;50.850;2.904;2023-05-10T08:33:38;4.90;;;3.57;;
21213;SDS011;10764;50.850;2.904;2023-05-10T08:36:07;3.97;;;3.28;;
21213;SDS011;10764;50.850;2.904;2023-05-10T08:38:37;5.18;;;3.50;;
21213;SDS011;10764;50.850;2.904;2023-05-10T08:41:04;4.03;;;3.28;;
21213;SDS011;10764;50.850;2.904;2023-05-10T08:43:32;4.20;;;3.13;;
21213;SDS011;10764;50.850;2.904;2023-05-10T08:46:00;4.22;;;3.47;;
21213;SDS011;10764;50.850;2.904;2023-05-10T08:48:29;5.05;;;3.35;;
21213;SDS011;10764;50.850;2.904;2023-05-10T08:50:57;4.35;;;3.58;;
21213;SDS011;10764;50.850;2.904;2023-05-10T08:53:27;4.53;;;3.35;;
21213;SDS011;10764;50.850;2.904;2023-05-10T08:55:57;5.77;;;3.77;;
21213;SDS011;10764;50.850;2.904;2023-05-10T08:58:24;4.20;;;3.42;;
21213;SDS011;10764;50.850;2.904;2023-05-10T09:00:51;5.15;;;3.75;;
21213;SDS011;10764;50.850;2.904;2023-05-10T09:03:19;4.47;;;3.70;;
21213;SDS011;10764;50.850;2.904;2023-05-10T09:05:47;4.93;;;3.53;;
21213;SDS011;10764;50.850;2.904;2023-05-10T09:08:14;4.03;;;3.30;;
21213;SDS011;10764;50.850;2.904;2023-05-10T09:10:43;4.53;;;3.83;;
21213;SDS011;10764;50.850;2.904;2023-05-10T09:13:10;3.95;;;3.45;;
21213;SDS011;10764;50.850;2.904;2023-05-10T09:15:38;4.97;;;3.70;;
21213;SDS011;10764;50.850;2.904;2023-05-10T09:18:05;3.63;;;3.33;;
21213;SDS011;10764;50.850;2.904;2023-05-10T09:20:32;4.90;;;3.80;;
21213;SDS011;10764;50.850;2.904;2023-05-10T09:22:59;4.68;;;3.70;;
21213;SDS011;10764;50.850;2.904;2023-05-10T09:25:26;3.90;;;3.50;;
21213;SDS011;10764;50.850;2.904;2023-05-10T09:27:53;5.85;;;4.25;;
21213;SDS011;10764;50.850;2.904;2023-05-10T09:30:28;4.40;;;3.75;;
21213;SDS011;10764;50.850;2.904;2023-05-10T09:32:57;4.43;;;3.67;;
21213;SDS011;10764;50.850;2.904;2023-05-10T09:35:26;4.70;;;3.80;;
21213;SDS011;10764;50.850;2.904;2023-05-10T09:37:57;4.88;;;3.90;;
21213;SDS011;10764;50.850;2.904;2023-05-10T09:40:26;4.77;;;3.73;;
21213;SDS011;10764;50.850;2.904;2023-05-10T09:42:57;5.35;;;3.83;;
21213;SDS011;10764;50.850;2.904;2023-05-10T09:45:30;4.85;;;3.78;;
21213;SDS011;10764;50.850;2.904;2023-05-10T09:48:02;5.25;;;3.83;;
21213;SDS011;10764;50.850;2.904;2023-05-10T09:50:30;4.55;;;3.60;;
21213;SDS011;10764;50.850;2.904;2023-05-10T09:52:57;4.25;;;3.60;;
21213;SDS011;10764;50.850;2.904;2023-05-10T09:55:39;3.88;;;3.47;;
21213;SDS011;10764;50.850;2.904;2023-05-10T09:58:06;4.40;;;3.60;;
21213;SDS011;10764;50.850;2.904;2023-05-10T10:00:37;4.20;;;3.42;;
21213;SDS011;10764;50.850;2.904;2023-05-10T10:03:05;4.40;;;3.70;;
21213;SDS011;10764;50.850;2.904;2023-05-10T10:05:39;4.90;;;3.40;;
21213;SDS011;10764;50.850;2.904;2023-05-10T10:08:09;4.70;;;3.50;;
21213;SDS011;10764;50.850;2.904;2023-05-10T10:10:36;4.05;;;3.47;;
21213;SDS011;10764;50.850;2.904;2023-05-10T10:13:04;4.82;;;3.45;;
21213;SDS011;10764;50.850;2.904;2023-05-10T10:15:32;4.75;;;3.38;;
21213;SDS011;10764;50.850;2.904;2023-05-10T10:18:00;4.53;;;3.45;;
21213;SDS011;10764;50.850;2.904;2023-05-10T10:20:27;5.13;;;3.30;;
21213;SDS011;10764;50.850;2.904;2023-05-10T10:22:54;4.70;;;3.43;;
21213;SDS011;10764;50.850;2.904;2023-05-10T10:25:21;5.00;;;3.30;;
21213;SDS011;10764;50.850;2.904;2023-05-10T10:36:20;4.43;;;3.40;;
21213;SDS011;10764;50.850;2.904;2023-05-10T10:41:27;6.85;;;3.53;;
21213;SDS011;10764;50.850;2.904;2023-05-10T10:47:04;14.25;;;5.60;;
21213;SDS011;10764;50.850;2.904;2023-05-10T10:49:42;11.87;;;5.43;;
21213;SDS011;10764;50.850;2.904;2023-05-10T10:54:56;17.52;;;6.43;;
21213;SDS011;10764;50.850;2.904;2023-05-10T11:00:23;16.42;;;6.25;;
21213;SDS011;10764;50.850;2.904;2023-05-10T11:02:53;14.30;;;5.72;;
21213;SDS011;10764;50.850;2.904;2023-05-10T11:10:38;17.05;;;6.40;;
21213;SDS011;10764;50.850;2.904;2023-05-10T11:13:06;14.43;;;5.90;;
21213;SDS011;10764;50.850;2.904;2023-05-10T11:15:39;14.40;;;5.50;;
21213;SDS011;10764;50.850;2.904;2023-05-10T11:18:20;16.17;;;5.95;;
21213;SDS011;10764;50.850;2.904;2023-05-10T11:23:29;12.65;;;5.40;;
21213;SDS011;10764;50.850;2.904;2023-05-10T11:26:07;14.00;;;5.80;;
21213;SDS011;10764;50.850;2.904;2023-05-10T11:31:13;13.95;;;5.65;;
21213;SDS011;10764;50.850;2.904;2023-05-10T11:33:48;15.27;;;5.68;;
21213;SDS011;10764;50.850;2.904;2023-05-10T11:36:17;11.80;;;5.13;;
21213;SDS011;10764;50.850;2.904;2023-05-10T11:38:46;10.45;;;4.90;;
21213;SDS011;10764;50.850;2.904;2023-05-10T11:41:14;12.50;;;4.90;;
21213;SDS011;10764;50.850;2.904;2023-05-10T11:43:43;14.77;;;4.40;;
21213;SDS011;10764;50.850;2.904;2023-05-10T11:46:13;10.32;;;4.38;;
21213;SDS011;10764;50.850;2.904;2023-05-10T11:48:40;10.40;;;4.30;;
21213;SDS011;10764;50.850;2.904;2023-05-10T11:51:09;11.90;;;4.90;;
21213;SDS011;10764;50.850;2.904;2023-05-10T11:53:36;12.30;;;4.70;;
21213;SDS011;10764;50.850;2.904;2023-05-10T11:58:32;10.15;;;3.92;;
21213;SDS011;10764;50.850;2.904;2023-05-10T12:01:00;10.93;;;4.05;;
21213;SDS011;10764;50.850;2.904;2023-05-10T12:03:27;10.77;;;3.83;;
21213;SDS011;10764;50.850;2.904;2023-05-10T12:05:55;10.48;;;4.28;;
21213;SDS011;10764;50.850;2.904;2023-05-10T12:08:24;8.70;;;3.70;;
21213;SDS011;10764;50.850;2.904;2023-05-10T12:10:53;10.02;;;3.63;;
21213;SDS011;10764;50.850;2.904;2023-05-10T12:13:30;7.85;;;3.33;;
21213;SDS011;10764;50.850;2.904;2023-05-10T12:15:57;10.00;;;3.55;;
21213;SDS011;10764;50.850;2.904;2023-05-10T12:18:24;7.18;;;2.92;;
21213;SDS011;10764;50.850;2.904;2023-05-10T12:20:52;9.70;;;3.35;;
21213;SDS011;10764;50.850;2.904;2023-05-10T12:23:22;7.57;;;3.17;;
21213;SDS011;10764;50.850;2.904;2023-05-10T12:25:48;7.97;;;3.17;;
21213;SDS011;10764;50.850;2.904;2023-05-10T12:28:16;7.22;;;3.17;;
21213;SDS011;10764;50.850;2.904;2023-05-10T12:30:46;7.40;;;3.00;;
21213;SDS011;10764;50.850;2.904;2023-05-10T12:33:13;8.50;;;3.15;;
21213;SDS011;10764;50.850;2.904;2023-05-10T12:35:44;8.60;;;3.40;;
21213;SDS011;10764;50.850;2.904;2023-05-10T12:40:56;9.97;;;3.23;;
21213;SDS011;10764;50.850;2.904;2023-05-10T12:43:24;9.48;;;3.22;;
21213;SDS011;10764;50.850;2.904;2023-05-10T12:45:51;7.53;;;3.00;;
21213;SDS011;10764;50.850;2.904;2023-05-10T12:48:18;7.60;;;2.90;;
21213;SDS011;10764;50.850;2.904;2023-05-10T12:50:45;7.05;;;2.60;;
21213;SDS011;10764;50.850;2.904;2023-05-10T12:53:13;7.57;;;2.72;;
21213;SDS011;10764;50.850;2.904;2023-05-10T12:55:42;8.40;;;3.03;;
21213;SDS011;10764;50.850;2.904;2023-05-10T12:58:09;8.07;;;3.00;;
21213;SDS011;10764;50.850;2.904;2023-05-10T13:00:46;8.23;;;2.97;;
21213;SDS011;10764;50.850;2.904;2023-05-10T13:03:13;7.05;;;2.90;;
21213;SDS011;10764;50.850;2.904;2023-05-10T13:05:41;7.13;;;2.67;;
21213;SDS011;10764;50.850;2.904;2023-05-10T13:08:08;6.93;;;2.85;;
21213;SDS011;10764;50.850;2.904;2023-05-10T13:10:35;6.32;;;2.50;;
21213;SDS011;10764;50.850;2.904;2023-05-10T13:13:02;6.90;;;2.70;;
21213;SDS011;10764;50.850;2.904;2023-05-10T13:15:29;6.53;;;2.30;;
21213;SDS011;10764;50.850;2.904;2023-05-10T13:17:56;6.50;;;2.63;;
21213;SDS011;10764;50.850;2.904;2023-05-10T13:20:23;7.25;;;2.70;;
21213;SDS011;10764;50.850;2.904;2023-05-10T13:22:51;5.80;;;2.38;;
21213;SDS011;10764;50.850;2.904;2023-05-10T13:25:18;5.10;;;2.17;;
21213;SDS011;10764;50.850;2.904;2023-05-10T13:27:45;7.15;;;2.35;;
21213;SDS011;10764;50.850;2.904;2023-05-10T13:30:12;5.25;;;2.10;;
21213;SDS011;10764;50.850;2.904;2023-05-10T13:32:39;4.40;;;2.03;;
21213;SDS011;10764;50.850;2.904;2023-05-10T13:35:06;5.25;;;1.85;;
21213;SDS011;10764;50.850;2.904;2023-05-10T13:37:34;5.70;;;2.20;;
21213;SDS011;10764;50.850;2.904;2023-05-10T13:40:03;4.15;;;2.03;;
21213;SDS011;10764;50.850;2.904;2023-05-10T13:42:31;5.00;;;2.00;;
21213;SDS011;10764;50.850;2.904;2023-05-10T13:45:00;4.63;;;1.83;;
21213;SDS011;10764;50.850;2.904;2023-05-10T13:47:29;4.18;;;1.98;;
21213;SDS011;10764;50.850;2.904;2023-05-10T13:49:57;5.15;;;1.80;;
21213;SDS011;10764;50.850;2.904;2023-05-10T13:52:24;4.78;;;2.00;;
21213;SDS011;10764;50.850;2.904;2023-05-10T13:54:52;4.97;;;1.98;;
21213;SDS011;10764;50.850;2.904;2023-05-10T13:57:21;4.93;;;2.00;;
21213;SDS011;10764;50.850;2.904;2023-05-10T13:59:49;4.35;;;1.73;;
21213;SDS011;10764;50.850;2.904;2023-05-10T14:02:16;4.65;;;1.92;;
21213;SDS011;10764;50.850;2.904;2023-05-10T14:04:43;4.53;;;1.88;;
21213;SDS011;10764;50.850;2.904;2023-05-10T14:07:10;5.85;;;2.38;;
21213;SDS011;10764;50.850;2.904;2023-05-10T14:09:37;5.32;;;1.73;;
21213;SDS011;10764;50.850;2.904;2023-05-10T14:12:04;4.85;;;1.92;;
21213;SDS011;10764;50.850;2.904;2023-05-10T14:14:31;4.40;;;1.65;;
21213;SDS011;10764;50.850;2.904;2023-05-10T14:16:58;3.85;;;1.63;;
21213;SDS011;10764;50.850;2.904;2023-05-10T14:19:25;3.90;;;1.60;;
21213;SDS011;10764;50.850;2.904;2023-05-10T14:21:53;3.85;;;1.60;;
21213;SDS011;10764;50.850;2.904;2023-05-10T14:24:20;4.65;;;1.75;;
21213;SDS011;10764;50.850;2.904;2023-05-10T14:26:47;4.63;;;1.65;;
21213;SDS011;10764;50.850;2.904;2023-05-10T14:29:14;5.70;;;1.70;;
21213;SDS011;10764;50.850;2.904;2023-05-10T14:31:41;4.15;;;1.60;;
21213;SDS011;10764;50.850;2.904;2023-05-10T14:34:08;5.13;;;1.60;;
21213;SDS011;10764;50.850;2.904;2023-05-10T14:36:35;5.03;;;1.70;;
21213;SDS011;10764;50.850;2.904;2023-05-10T14:39:02;4.10;;;1.60;;
21213;SDS011;10764;50.850;2.904;2023-05-10T14:41:30;5.28;;;1.88;;
21213;SDS011;10764;50.850;2.904;2023-05-10T14:43:57;3.67;;;1.57;;
21213;SDS011;10764;50.850;2.904;2023-05-10T14:46:24;3.65;;;1.50;;
21213;SDS011;10764;50.850;2.904;2023-05-10T14:48:52;4.03;;;1.75;;
21213;SDS011;10764;50.850;2.904;2023-05-10T14:51:18;5.30;;;1.80;;
21213;SDS011;10764;50.850;2.904;2023-05-10T14:53:48;5.18;;;1.60;;
21213;SDS011;10764;50.850;2.904;2023-05-10T14:56:15;4.65;;;1.60;;
21213;SDS011;10764;50.850;2.904;2023-05-10T14:58:42;4.07;;;1.52;;
21213;SDS011;10764;50.850;2.904;2023-05-10T15:01:09;4.03;;;1.52;;
21213;SDS011;10764;50.850;2.904;2023-05-10T15:03:37;3.15;;;1.60;;
21213;SDS011;10764;50.850;2.904;2023-05-10T15:06:05;6.15;;;1.65;;
21213;SDS011;10764;50.850;2.904;2023-05-10T15:08:32;3.60;;;1.48;;
21213;SDS011;10764;50.850;2.904;2023-05-10T15:10:59;4.43;;;1.52;;
21213;SDS011;10764;50.850;2.904;2023-05-10T15:13:26;3.47;;;1.27;;
21213;SDS011;10764;50.850;2.904;2023-05-10T15:15:53;4.22;;;1.50;;
21213;SDS011;10764;50.850;2.904;2023-05-10T15:18:20;4.82;;;1.48;;
21213;SDS011;10764;50.850;2.904;2023-05-10T15:20:48;4.28;;;1.60;;
21213;SDS011;10764;50.850;2.904;2023-05-10T15:23:15;3.83;;;1.40;;
21213;SDS011;10764;50.850;2.904;2023-05-10T15:25:43;3.45;;;1.40;;
21213;SDS011;10764;50.850;2.904;2023-05-10T15:28:10;4.57;;;1.20;;
21213;SDS011;10764;50.850;2.904;2023-05-10T15:30:36;3.63;;;1.23;;
21213;SDS011;10764;50.850;2.904;2023-05-10T15:33:03;3.10;;;1.30;;
21213;SDS011;10764;50.850;2.904;2023-05-10T15:35:30;3.40;;;1.40;;
21213;SDS011;10764;50.850;2.904;2023-05-10T15:37:57;4.07;;;1.63;;
21213;SDS011;10764;50.850;2.904;2023-05-10T15:40:24;3.45;;;1.33;;
21213;SDS011;10764;50.850;2.904;2023-05-10T15:42:51;2.67;;;1.25;;
21213;SDS011;10764;50.850;2.904;2023-05-10T15:45:18;3.72;;;1.30;;